Time;durP1;ratioP1;P1;durP2;ratioP2;P2;SDS_P1;SDS_P2;PMS_P1;PMS_P2;Temp;Humidity;BMP_temperature;BMP_pressure;BME280_temperature;BME280_humidity;BME280_pressure;Samples;Min_cycle;Max_cycle;Signal;HPM_P1;HPM_P2
2022/12/15 00:41:25;;;;;;;4.43;3.23;;;;;;;-3.88;83.43;99599.56;4906645;29;20132;-64
2022/12/15 00:43:51;;;;;;;4.43;3.07;;;;;;;-3.77;83.34;99600.94;4912982;29;20115;-64
2022/12/15 00:49:01;;;;;;;4.97;3.20;;;;;;;-3.56;83.02;99617.19;4911015;29;20051;-64
2022/12/15 01:21:41;;;;;;;4.45;3.05;;;;;;;-3.06;83.47;99626.84;4987450;28;20065;-64
2022/12/15 01:24:07;;;;;;;5.03;3.25;;;;;;;-3.05;83.46;99614.47;4990311;28;20550;-65
2022/12/15 01:26:32;;;;;;;6.28;4.45;;;;;;;-3.28;83.91;99615.41;4978575;28;20331;-64
2022/12/15 01:28:58;;;;;;;3.50;2.05;;;;;;;-3.15;84.00;99622.56;4991711;28;20545;-64
2022/12/15 01:31:24;;;;;;;6.40;2.47;;;;;;;-3.10;83.98;99625.13;4991474;28;20038;-63
2022/12/15 01:33:53;;;;;;;12.73;4.55;;;;;;;-3.07;84.02;99620.03;4962445;28;20066;-65
2022/12/15 01:36:18;;;;;;;7.93;3.92;;;;;;;-3.10;83.74;99614.59;4984862;28;20034;-64
2022/12/15 01:38:44;;;;;;;5.53;2.95;;;;;;;-3.03;84.01;99607.06;4991821;28;20117;-64
2022/12/15 01:41:11;;;;;;;8.18;4.00;;;;;;;-3.09;83.69;99597.72;4977554;28;20128;-64
2022/12/15 01:43:38;;;;;;;6.35;3.75;;;;;;;-2.99;83.57;99610.69;4986292;28;20039;-64
2022/12/15 01:46:08;;;;;;;7.57;4.93;;;;;;;-2.95;83.37;99616.94;4991009;28;20474;-65
2022/12/15 01:48:36;;;;;;;4.93;3.28;;;;;;;-3.14;83.04;99609.13;4988481;28;20471;-64
2022/12/15 01:51:30;;;;;;;5.68;3.47;;;;;;;-3.04;83.56;99610.78;4973032;28;20034;-65
2022/12/15 01:54:02;;;;;;;9.05;3.90;;;;;;;-3.06;83.41;99611.06;4977565;28;20046;-64
2022/12/15 01:56:30;;;;;;;7.63;3.50;;;;;;;-3.19;83.85;99609.19;4991596;28;20035;-65
2022/12/15 01:59:00;;;;;;;3.38;3.08;;;;;;;-3.19;84.09;99611.03;4963861;28;20446;-65
2022/12/15 02:01:26;;;;;;;5.03;3.72;;;;;;;-3.22;84.30;99607.16;4988342;28;20069;-63
2022/12/15 02:03:51;;;;;;;6.13;3.88;;;;;;;-3.19;83.92;99603.94;4973131;28;20062;-64
2022/12/15 02:06:20;;;;;;;8.10;3.17;;;;;;;-3.10;84.12;99617.22;4991624;28;20040;-65
2022/12/15 02:08:48;;;;;;;6.35;3.00;;;;;;;-3.03;83.50;99623.66;4989252;28;20542;-65
2022/12/15 02:11:48;;;;;;;7.95;3.75;;;;;;;-3.04;83.64;99634.47;4985488;28;20368;-65
2022/12/15 02:14:26;;;;;;;1.95;1.63;;;;;;;-3.18;83.71;99628.41;4990472;28;20116;-65
2022/12/15 02:17:11;;;;;;;6.03;4.20;;;;;;;-3.18;83.46;99631.81;4966264;28;20124;-64
2022/12/15 02:19:54;;;;;;;4.63;3.08;;;;;;;-3.15;83.69;99636.50;4967240;28;20030;-64
2022/12/15 02:22:50;;;;;;;5.28;3.25;;;;;;;-3.06;83.65;99658.44;4972906;28;20391;-65
2022/12/15 02:26:03;;;;;;;6.60;3.70;;;;;;;-3.01;83.34;99653.09;4990535;28;20125;-64
2022/12/15 02:28:52;;;;;;;2.83;2.60;;;;;;;-3.11;83.14;99639.31;4883508;29;20078;-64
2022/12/15 02:34:28;;;;;;;4.40;3.03;;;;;;;-3.17;83.36;99656.28;4964570;28;20052;-65
2022/12/15 02:37:03;;;;;;;6.13;2.95;;;;;;;-3.08;83.23;99654.56;4991413;28;20569;-68
2022/12/15 02:39:28;;;;;;;6.80;3.50;;;;;;;-3.08;83.02;99644.03;4967452;28;20193;-65
2022/12/15 02:41:54;;;;;;;4.05;3.17;;;;;;;-3.12;82.90;99640.41;4973534;28;20113;-65
2022/12/15 02:44:28;;;;;;;6.50;4.65;;;;;;;-3.19;82.83;99637.34;4985452;28;20144;-64
2022/12/15 02:47:08;;;;;;;8.13;3.63;;;;;;;-3.22;82.68;99632.69;4987566;28;20069;-65
2022/12/15 02:49:59;;;;;;;4.82;3.13;;;;;;;-3.23;82.95;99642.41;4984817;28;20538;-64
2022/12/15 02:52:33;;;;;;;13.73;3.53;;;;;;;-3.34;82.95;99650.78;4972318;28;20093;-65
2022/12/15 02:55:22;;;;;;;6.57;2.28;;;;;;;-3.33;83.03;99655.75;4991054;28;20293;-64
2022/12/15 02:58:01;;;;;;;7.47;4.10;;;;;;;-3.32;83.22;99656.53;4983159;28;20050;-64
2022/12/15 03:00:31;;;;;;;5.70;4.28;;;;;;;-3.40;83.30;99663.22;4969532;28;20476;-65
2022/12/15 03:02:57;;;;;;;11.18;5.05;;;;;;;-3.33;83.52;99657.59;4965476;28;20141;-65
2022/12/15 03:05:24;;;;;;;3.13;2.55;;;;;;;-3.33;83.45;99653.09;4984429;28;20364;-66
2022/12/15 03:07:52;;;;;;;8.37;3.83;;;;;;;-3.26;83.42;99640.38;4984460;28;20049;-65
2022/12/15 03:10:20;;;;;;;4.97;3.80;;;;;;;-3.28;83.34;99647.78;4968683;28;20569;-65
2022/12/15 03:12:46;;;;;;;4.63;3.95;;;;;;;-3.26;83.27;99648.28;4990378;28;20042;-65
2022/12/15 03:15:11;;;;;;;5.10;3.17;;;;;;;-3.24;83.26;99643.50;4973411;28;20103;-65
2022/12/15 03:17:37;;;;;;;2.88;2.67;;;;;;;-3.30;83.05;99651.75;4969735;28;20034;-65
2022/12/15 03:20:04;;;;;;;7.45;3.92;;;;;;;-3.21;82.95;99652.66;4990122;28;20049;-64
2022/12/15 03:22:30;;;;;;;4.10;3.65;;;;;;;-3.16;83.08;99636.78;4990366;28;20022;-65
2022/12/15 03:24:56;;;;;;;2.93;2.73;;;;;;;-3.15;82.66;99647.03;4989597;28;20042;-64
2022/12/15 03:27:21;;;;;;;4.20;3.45;;;;;;;-3.22;82.71;99640.56;4986782;28;20041;-64
2022/12/15 03:29:47;;;;;;;5.50;2.97;;;;;;;-3.33;83.28;99637.31;4990382;28;20037;-65
2022/12/15 03:32:12;;;;;;;4.88;3.38;;;;;;;-3.23;83.13;99650.31;4973068;28;20038;-64
2022/12/15 03:34:37;;;;;;;5.57;4.07;;;;;;;-3.18;83.28;99644.19;4967046;28;20121;-64
2022/12/15 03:37:03;;;;;;;5.65;2.72;;;;;;;-3.19;83.00;99642.63;4987509;28;20034;-65
2022/12/15 03:39:28;;;;;;;5.05;3.03;;;;;;;-3.27;83.71;99632.78;4990156;28;20466;-65
2022/12/15 03:41:54;;;;;;;6.00;3.35;;;;;;;-3.45;84.26;99634.38;4991008;28;20034;-65
2022/12/15 03:44:19;;;;;;;2.83;2.15;;;;;;;-3.31;84.68;99644.94;4981379;28;20440;-64
2022/12/15 03:46:45;;;;;;;5.65;2.38;;;;;;;-3.19;84.61;99653.16;4971203;28;20409;-64
2022/12/15 03:49:10;;;;;;;3.78;2.67;;;;;;;-3.14;84.09;99660.97;4980780;28;20038;-65
2022/12/15 03:51:36;;;;;;;2.08;1.90;;;;;;;-3.24;84.21;99663.75;4966409;28;20173;-64
2022/12/15 03:54:01;;;;;;;5.57;3.72;;;;;;;-3.15;84.16;99660.19;4988903;28;20445;-65
2022/12/15 03:56:27;;;;;;;11.57;4.22;;;;;;;-3.07;84.08;99658.72;4990190;28;20509;-65
2022/12/15 03:58:52;;;;;;;3.55;2.28;;;;;;;-3.09;84.25;99652.97;4983771;28;20504;-65
2022/12/15 04:01:27;;;;;;;11.32;3.53;;;;;;;-3.20;84.44;99659.50;4989372;28;20030;-64
2022/12/15 04:03:53;;;;;;;7.97;3.38;;;;;;;-3.24;84.86;99666.41;4988416;28;20101;-65
2022/12/15 04:06:18;;;;;;;10.95;3.38;;;;;;;-3.20;85.12;99660.28;4994027;28;20593;-65
2022/12/15 04:08:44;;;;;;;5.65;3.70;;;;;;;-3.17;85.19;99661.53;4984526;28;20042;-65
2022/12/15 04:11:09;;;;;;;6.45;3.30;;;;;;;-3.14;85.18;99671.50;4975474;28;20057;-64
2022/12/15 04:13:34;;;;;;;4.40;3.88;;;;;;;-3.07;85.35;99677.16;4992801;28;20113;-64
2022/12/15 04:16:01;;;;;;;3.72;2.50;;;;;;;-3.02;84.81;99675.22;4975448;28;20525;-64
2022/12/15 04:18:27;;;;;;;5.90;3.33;;;;;;;-2.97;84.81;99666.47;4986284;28;20030;-67
2022/12/15 04:20:52;;;;;;;3.60;2.33;;;;;;;-2.99;84.81;99663.34;4989753;28;20030;-64
2022/12/15 04:23:38;;;;;;;5.68;3.72;;;;;;;-2.87;84.73;99671.56;4986861;28;20034;-64
2022/12/15 05:32:00;;;;;;;3.58;2.35;;;;;;;-3.01;86.72;99708.38;4991739;28;20045;-65
2022/12/15 05:34:31;;;;;;;4.40;2.72;;;;;;;-3.01;86.40;99715.50;4973734;28;20027;-65
2022/12/15 05:36:58;;;;;;;2.85;2.53;;;;;;;-3.03;86.70;99715.00;4974023;28;20046;-65
2022/12/15 05:39:24;;;;;;;3.33;3.03;;;;;;;-3.04;86.50;99708.19;4983095;28;20422;-65
2022/12/15 05:41:50;;;;;;;6.57;3.53;;;;;;;-3.01;86.87;99713.66;4986694;28;20026;-65
2022/12/15 05:44:16;;;;;;;6.05;2.78;;;;;;;-3.02;86.61;99706.81;4979127;28;20118;-65
2022/12/15 05:46:42;;;;;;;3.30;2.83;;;;;;;-3.05;86.76;99719.75;4981316;28;20145;-65
2022/12/15 05:49:10;;;;;;;3.55;3.17;;;;;;;-3.04;86.90;99721.34;4984496;28;20040;-65
2022/12/15 05:51:39;;;;;;;3.28;2.97;;;;;;;-3.19;87.17;99726.81;4966303;28;20501;-65
2022/12/15 05:54:05;;;;;;;13.30;3.50;;;;;;;-3.17;87.72;99719.44;4980100;28;20038;-65
2022/12/15 05:56:31;;;;;;;3.65;2.28;;;;;;;-3.11;87.60;99726.97;4972818;28;20030;-65
2022/12/15 05:58:56;;;;;;;4.70;2.38;;;;;;;-3.18;87.54;99723.13;4984301;28;20288;-65
2022/12/15 06:01:23;;;;;;;2.25;2.10;;;;;;;-3.13;88.17;99726.47;4992384;28;20384;-65
2022/12/15 06:03:49;;;;;;;12.05;5.10;;;;;;;-3.06;88.00;99734.00;4991251;28;20114;-65
2022/12/15 06:06:15;;;;;;;5.28;3.35;;;;;;;-2.86;87.07;99747.63;4991463;28;20112;-65
2022/12/15 06:08:41;;;;;;;6.15;3.58;;;;;;;-2.94;86.69;99750.91;4991671;28;20035;-65
2022/12/15 06:11:10;;;;;;;6.10;3.47;;;;;;;-2.91;86.82;99762.72;4995041;28;20034;-65
2022/12/15 06:13:35;;;;;;;3.83;2.75;;;;;;;-2.88;87.01;99762.13;4962263;28;20039;-66
2022/12/15 06:16:08;;;;;;;3.80;2.15;;;;;;;-2.92;87.57;99759.28;4970868;28;20120;-65
2022/12/15 06:18:37;;;;;;;4.50;3.38;;;;;;;-2.85;87.19;99761.56;4985484;28;20042;-65
2022/12/15 06:21:09;;;;;;;4.55;2.65;;;;;;;-2.95;87.25;99765.16;4962923;28;20734;-65
2022/12/15 06:23:35;;;;;;;5.45;3.65;;;;;;;-3.04;88.22;99760.81;4982610;28;20026;-65
2022/12/15 06:26:08;;;;;;;8.57;3.30;;;;;;;-2.94;87.58;99771.19;4999933;22;20062;-65
2022/12/15 06:28:33;;;;;;;5.30;3.45;;;;;;;-2.84;86.99;99763.13;5001154;28;20026;-65
2022/12/15 06:31:02;;;;;;;3.40;2.63;;;;;;;-2.89;87.62;99774.53;5003912;28;20512;-65
2022/12/15 06:33:28;;;;;;;15.82;4.90;;;;;;;-2.97;88.22;99764.66;4991399;28;20036;-65
2022/12/15 06:35:54;;;;;;;7.40;4.35;;;;;;;-2.89;87.98;99760.59;4990568;28;20038;-65
2022/12/15 06:38:20;;;;;;;5.70;3.08;;;;;;;-2.84;87.77;99768.38;4985643;28;20089;-66
2022/12/15 06:40:45;;;;;;;8.13;3.97;;;;;;;-2.92;88.36;99779.56;4968524;28;20042;-65
2022/12/15 06:43:10;;;;;;;2.50;1.98;;;;;;;-2.85;87.98;99774.72;4969536;28;20037;-65
2022/12/15 06:45:36;;;;;;;5.20;3.35;;;;;;;-2.84;87.92;99786.81;4970423;28;20042;-65
2022/12/15 06:48:02;;;;;;;9.02;4.30;;;;;;;-2.80;87.84;99787.81;4981514;28;20182;-65
2022/12/15 06:50:28;;;;;;;5.93;3.38;;;;;;;-2.91;88.39;99787.19;4983891;28;20140;-65
2022/12/15 06:53:14;;;;;;;14.13;5.28;;;;;;;-3.01;88.64;99782.09;4984752;28;20070;-65
2022/12/15 06:55:40;;;;;;;8.45;3.85;;;;;;;-3.03;89.08;99783.44;4950036;29;20460;-66
2022/12/15 06:58:06;;;;;;;7.35;4.70;;;;;;;-3.02;88.93;99777.13;4933595;29;20074;-65
2022/12/15 07:00:35;;;;;;;9.32;3.47;;;;;;;-3.00;89.24;99785.50;4948514;28;20125;-66
2022/12/15 07:03:08;;;;;;;6.88;3.58;;;;;;;-3.01;89.14;99776.03;4941108;28;20079;-65
2022/12/15 07:05:33;;;;;;;6.28;3.38;;;;;;;-2.94;89.44;99792.25;4934021;28;20053;-65
2022/12/15 07:07:59;;;;;;;8.88;4.43;;;;;;;-3.06;89.43;99802.44;4944628;29;20040;-65
2022/12/15 07:10:24;;;;;;;4.95;2.35;;;;;;;-2.95;89.29;99807.28;4933210;28;20044;-66
2022/12/15 07:12:50;;;;;;;3.67;2.75;;;;;;;-2.94;89.10;99805.41;4958363;28;20054;-65
2022/12/15 07:15:16;;;;;;;3.03;2.83;;;;;;;-2.93;89.39;99809.63;4941457;28;20043;-65
2022/12/15 07:17:41;;;;;;;8.05;3.83;;;;;;;-2.97;89.35;99805.97;4934365;28;20377;-65
2022/12/15 07:20:07;;;;;;;5.32;2.80;;;;;;;-3.01;89.97;99818.94;4936949;28;20483;-64
2022/12/15 07:22:33;;;;;;;4.38;3.42;;;;;;;-2.96;89.94;99815.47;4926667;28;20039;-65
2022/12/15 07:24:58;;;;;;;5.20;3.45;;;;;;;-2.87;89.85;99830.31;4936654;28;20039;-65
2022/12/15 07:27:24;;;;;;;10.10;4.07;;;;;;;-2.85;89.53;99828.19;4942987;28;20087;-65
2022/12/15 07:29:49;;;;;;;3.97;3.38;;;;;;;-2.93;90.04;99833.31;4938219;28;20040;-64
2022/12/15 07:32:14;;;;;;;5.40;3.28;;;;;;;-2.84;89.53;99835.00;4942840;28;20042;-64
2022/12/15 07:34:40;;;;;;;5.40;3.97;;;;;;;-2.87;90.35;99832.97;4970887;28;20085;-65
2022/12/15 07:37:07;;;;;;;11.52;4.30;;;;;;;-2.74;90.13;99839.34;4968175;28;20084;-64
2022/12/15 07:39:32;;;;;;;5.60;4.10;;;;;;;-2.84;89.82;99842.91;4991151;28;20018;-65
2022/12/15 07:41:58;;;;;;;12.15;3.55;;;;;;;-2.77;90.01;99847.81;4974276;28;20033;-64
2022/12/15 07:44:27;;;;;;;6.82;3.63;;;;;;;-2.72;89.96;99853.00;4970709;28;20069;-65
2022/12/15 07:46:53;;;;;;;4.13;3.72;;;;;;;-2.69;90.00;99859.56;4988087;28;20030;-66
2022/12/15 07:49:19;;;;;;;9.10;4.47;;;;;;;-2.61;89.89;99854.41;4988104;28;20631;-65
2022/12/15 07:51:44;;;;;;;3.03;2.38;;;;;;;-2.60;89.47;99866.50;4984880;28;20030;-64
2022/12/15 07:54:11;;;;;;;3.08;2.53;;;;;;;-2.51;89.49;99870.03;4987733;28;20540;-64
2022/12/15 07:56:37;;;;;;;8.52;4.22;;;;;;;-2.67;89.85;99868.72;4971721;28;20087;-65
2022/12/15 07:59:04;;;;;;;6.57;4.15;;;;;;;-2.45;90.01;99882.06;4987089;28;20361;-65
2022/12/15 08:01:30;;;;;;;5.32;3.10;;;;;;;-2.52;90.08;99881.66;4992201;28;20030;-63
2022/12/15 08:03:55;;;;;;;12.65;5.13;;;;;;;-2.46;90.48;99872.63;4962788;28;20049;-65
2022/12/15 08:06:20;;;;;;;6.00;3.80;;;;;;;-2.49;90.64;99872.38;4979050;28;20034;-65
2022/12/15 08:08:46;;;;;;;4.07;2.10;;;;;;;-2.43;90.61;99882.56;4971979;28;20475;-65
2022/12/15 08:11:14;;;;;;;9.48;4.13;;;;;;;-2.33;89.98;99887.69;4993168;28;20030;-64
2022/12/15 08:13:40;;;;;;;6.88;4.13;;;;;;;-2.32;90.17;99889.22;4992190;28;20498;-65
2022/12/15 08:16:06;;;;;;;13.40;5.20;;;;;;;-2.19;90.55;99896.38;4993743;28;20490;-65
2022/12/15 08:18:32;;;;;;;11.52;4.18;;;;;;;-2.18;90.25;99894.53;4991215;28;20159;-65
2022/12/15 08:21:06;;;;;;;5.97;3.67;;;;;;;-2.02;90.02;99883.47;4975500;28;20042;-65
2022/12/15 08:23:32;;;;;;;3.97;2.38;;;;;;;-2.02;90.00;99891.38;4975756;28;20030;-64
2022/12/15 08:26:10;;;;;;;9.43;3.58;;;;;;;-1.97;90.06;99901.03;4989018;28;20041;-65
2022/12/15 08:28:37;;;;;;;3.13;2.35;;;;;;;-2.03;90.19;99902.19;4975961;28;20074;-65
2022/12/15 08:31:08;;;;;;;10.75;3.35;;;;;;;-2.00;90.21;99899.78;4986824;28;20042;-65
2022/12/15 08:33:35;;;;;;;7.95;3.80;;;;;;;-1.96;90.07;99908.69;4984789;28;20954;-65
2022/12/15 08:36:03;;;;;;;9.40;5.15;;;;;;;-1.92;90.19;99912.28;4972665;28;20080;-65
2022/12/15 08:38:30;;;;;;;5.70;3.58;;;;;;;-1.80;89.68;99914.44;4986087;28;20093;-64
2022/12/15 08:40:56;;;;;;;6.45;3.40;;;;;;;-1.78;90.21;99914.16;4960077;28;20038;-65
2022/12/15 08:43:22;;;;;;;7.68;3.40;;;;;;;-1.80;89.99;99908.41;4981767;28;20157;-65
2022/12/15 08:45:48;;;;;;;9.68;4.00;;;;;;;-1.67;90.15;99916.31;4971789;28;20038;-65
2022/12/15 08:48:14;;;;;;;11.30;4.78;;;;;;;-1.59;89.88;99928.06;4991669;28;20029;-66
2022/12/15 08:50:44;;;;;;;5.47;4.18;;;;;;;-1.43;89.83;99924.81;4972539;28;20500;-64
2022/12/15 08:53:11;;;;;;;4.85;3.10;;;;;;;-1.29;90.00;99930.91;4992791;28;20092;-64
2022/12/15 08:55:36;;;;;;;17.58;4.25;;;;;;;-1.35;89.41;99937.34;4960310;28;20037;-65
2022/12/15 08:58:02;;;;;;;5.55;3.22;;;;;;;-1.22;89.13;99933.16;4982144;28;20034;-65
2022/12/15 09:00:28;;;;;;;6.25;3.53;;;;;;;-1.28;88.35;99931.69;4971386;28;20082;-65
2022/12/15 09:02:53;;;;;;;9.00;3.90;;;;;;;-1.22;88.55;99930.50;4966747;28;20041;-65
2022/12/15 09:05:19;;;;;;;8.07;3.90;;;;;;;-1.13;88.71;99931.38;4974852;28;20156;-66
2022/12/15 09:07:44;;;;;;;5.13;3.20;;;;;;;-1.16;88.43;99930.09;4980324;28;20030;-65
2022/12/15 09:10:10;;;;;;;11.73;4.63;;;;;;;-0.95;88.51;99931.25;4971370;28;20558;-65
2022/12/15 09:12:35;;;;;;;12.48;5.47;;;;;;;-0.72;87.17;99940.03;4985891;28;20034;-65
2022/12/15 09:15:01;;;;;;;5.13;3.78;;;;;;;-0.55;87.06;99939.38;4975394;28;20443;-65
2022/12/15 09:17:26;;;;;;;7.20;4.32;;;;;;;-0.46;87.09;99927.78;4972646;28;20452;-66
2022/12/15 09:19:52;;;;;;;8.23;5.28;;;;;;;-0.46;86.08;99932.28;4959299;28;20030;-66
2022/12/15 09:22:17;;;;;;;8.68;4.28;;;;;;;-0.49;86.59;99928.41;4991264;28;20046;-65
2022/12/15 09:24:43;;;;;;;7.22;4.00;;;;;;;-0.46;85.76;99925.13;4992308;28;20487;-65
2022/12/15 09:27:08;;;;;;;11.55;4.75;;;;;;;-0.38;86.19;99928.94;4984673;28;20042;-65
2022/12/15 09:29:34;;;;;;;8.48;5.40;;;;;;;-0.26;86.54;99923.88;4992148;28;20156;-65
2022/12/15 09:31:59;;;;;;;10.10;4.43;;;;;;;0.03;86.09;99929.53;4989096;28;20034;-65
2022/12/15 09:34:25;;;;;;;11.93;3.88;;;;;;;0.04;85.40;99939.00;4964654;28;20372;-66
2022/12/15 09:36:50;;;;;;;7.25;4.32;;;;;;;0.05;85.49;99939.78;4989792;28;20478;-64
2022/12/15 09:39:16;;;;;;;11.80;6.28;;;;;;;0.05;85.12;99937.94;4984034;28;20038;-65
2022/12/15 09:41:52;;;;;;;11.20;4.57;;;;;;;-0.10;85.10;99941.72;4989338;28;20035;-65
2022/12/15 09:44:20;;;;;;;14.18;4.63;;;;;;;0.05;85.54;99942.44;4985135;28;20584;-65
2022/12/15 09:47:24;;;;;;;5.55;3.83;;;;;;;-0.04;85.69;99948.47;4985170;28;20057;-65
2022/12/15 09:50:08;;;;;;;10.88;6.03;;;;;;;-0.14;86.49;99947.94;4980952;28;20089;-66
2022/12/15 09:52:52;;;;;;;10.23;4.80;;;;;;;0.06;86.27;99949.31;4980808;28;20065;-65
2022/12/15 09:55:25;;;;;;;7.47;4.03;;;;;;;0.03;86.30;99949.91;4986393;28;20034;-65
2022/12/15 09:57:54;;;;;;;10.98;4.53;;;;;;;0.08;86.05;99957.72;4974356;28;20033;-65
2022/12/15 10:00:24;;;;;;;7.38;4.18;;;;;;;0.06;85.88;99959.91;4965965;28;20029;-65
2022/12/15 10:03:21;;;;;;;5.82;3.80;;;;;;;0.22;86.35;99959.19;4981069;28;20228;-67
2022/12/15 10:05:52;;;;;;;12.25;5.78;;;;;;;0.01;86.21;99958.16;4989581;28;20061;-66
2022/12/15 10:08:22;;;;;;;6.13;5.05;;;;;;;0.10;85.71;99947.63;4991425;28;20241;-66
2022/12/15 10:10:56;;;;;;;9.47;4.50;;;;;;;0.20;85.91;99947.34;4986431;28;20039;-67
2022/12/15 10:14:09;;;;;;;8.57;4.40;;;;;;;0.25;85.62;99963.91;4943648;28;20301;-66
2022/12/15 10:16:44;;;;;;;10.73;5.68;;;;;;;0.36;86.34;99965.19;4903380;28;20050;-65
2022/12/15 10:19:28;;;;;;;9.40;4.70;;;;;;;0.45;85.33;99976.59;4984070;28;20050;-66
2022/12/15 10:21:56;;;;;;;11.70;4.60;;;;;;;0.46;85.15;99962.28;4971256;28;20030;-66
2022/12/15 10:24:23;;;;;;;4.97;4.28;;;;;;;0.40;86.03;99968.00;4973786;28;20029;-65
2022/12/15 10:27:17;;;;;;;11.77;4.93;;;;;;;0.43;85.96;99970.03;4975191;28;20041;-65
2022/12/15 10:29:45;;;;;;;9.02;4.70;;;;;;;0.48;86.23;99969.94;4970375;28;20046;-65
2022/12/15 10:32:46;;;;;;;13.82;5.25;;;;;;;0.38;86.83;99962.25;4988316;28;20038;-65
2022/12/15 10:35:20;;;;;;;7.20;4.68;;;;;;;0.32;87.90;99947.56;4972739;28;20049;-66
2022/12/15 10:37:46;;;;;;;10.77;5.13;;;;;;;-0.04;89.64;99948.47;4991794;28;20056;-66
2022/12/15 10:40:19;;;;;;;8.05;4.63;;;;;;;0.02;90.38;99957.03;4967498;28;20038;-66
2022/12/15 10:42:48;;;;;;;17.00;6.00;;;;;;;0.16;89.51;99956.97;4990110;28;20034;-66
2022/12/15 10:45:34;;;;;;;12.45;5.28;;;;;;;0.19;89.84;99949.22;4989163;28;20019;-65
2022/12/15 10:48:01;;;;;;;10.20;5.00;;;;;;;0.23;89.78;99950.19;4990077;28;20039;-65
2022/12/15 10:50:26;;;;;;;8.30;4.95;;;;;;;0.09;91.04;99948.69;4989272;28;20417;-65
2022/12/15 10:52:52;;;;;;;13.95;4.13;;;;;;;0.30;90.29;99945.22;4983799;28;20055;-65
2022/12/15 10:55:37;;;;;;;7.25;3.97;;;;;;;0.34;90.88;99946.19;4987443;28;20041;-65
2022/12/15 10:58:16;;;;;;;13.98;4.68;;;;;;;0.32;91.93;99951.00;4987501;28;20026;-66
2022/12/15 11:00:41;;;;;;;8.48;5.30;;;;;;;0.46;91.07;99943.75;4980996;28;20046;-65
2022/12/15 11:03:24;;;;;;;8.57;4.82;;;;;;;0.59;91.25;99950.03;4986051;28;20026;-65
2022/12/15 11:05:55;;;;;;;6.32;3.63;;;;;;;0.75;91.39;99948.53;4988458;28;20061;-65
2022/12/15 11:08:23;;;;;;;12.77;5.60;;;;;;;0.86;90.94;99952.47;4990615;28;20045;-66
2022/12/15 11:13:36;;;;;;;8.15;5.50;;;;;;;1.00;90.50;99947.84;4984650;28;20034;-66
2022/12/15 11:16:16;;;;;;;11.85;6.07;;;;;;;1.10;91.10;99946.75;4975532;28;20037;-65
2022/12/15 11:19:06;;;;;;;10.73;3.85;;;;;;;1.22;90.26;99958.31;4978246;28;20035;-65
2022/12/15 11:21:40;;;;;;;7.75;4.65;;;;;;;1.07;90.78;99961.41;4988581;28;20062;-65
2022/12/15 11:24:26;;;;;;;15.45;5.53;;;;;;;1.20;90.66;99965.03;4979845;28;20467;-66
2022/12/15 11:27:14;;;;;;;7.07;4.88;;;;;;;1.01;89.62;99961.88;4977515;28;20042;-65
2022/12/15 11:30:02;;;;;;;7.63;4.18;;;;;;;0.87;90.96;99962.00;4970876;28;20069;-65
2022/12/15 11:32:33;;;;;;;5.22;3.28;;;;;;;0.95;90.76;99957.78;4991507;28;20046;-65
2022/12/15 11:34:59;;;;;;;9.35;4.28;;;;;;;1.12;90.42;99952.53;4975665;28;20495;-66
2022/12/15 11:37:39;;;;;;;6.43;4.35;;;;;;;1.08;90.82;99952.38;4954472;28;20026;-65
2022/12/15 11:40:19;;;;;;;9.40;5.03;;;;;;;1.29;90.39;99960.50;4988954;28;20049;-66
2022/12/15 11:42:47;;;;;;;12.15;4.40;;;;;;;1.42;90.24;99960.38;4993935;28;20034;-65
2022/12/15 11:45:24;;;;;;;13.27;5.65;;;;;;;1.28;90.14;99962.38;4976374;28;20038;-65
2022/12/15 11:47:49;;;;;;;7.78;4.45;;;;;;;1.46;89.81;99963.16;4976342;28;20049;-66
2022/12/15 11:50:38;;;;;;;9.85;4.88;;;;;;;1.51;89.45;99971.00;4974891;28;20034;-65
2022/12/15 11:53:22;;;;;;;6.97;3.47;;;;;;;1.63;89.82;99971.13;4975896;28;20053;-65
2022/12/15 11:56:00;;;;;;;12.25;5.57;;;;;;;1.51;89.89;99971.75;4981571;28;20319;-66
2022/12/15 11:58:55;;;;;;;18.90;5.72;;;;;;;1.30;91.32;99976.09;4989034;28;20391;-65
2022/12/15 12:01:36;;;;;;;7.07;3.80;;;;;;;1.49;91.12;99970.53;4981743;28;20061;-65
2022/12/15 12:04:20;;;;;;;8.98;4.32;;;;;;;1.62;90.89;99969.59;4990347;28;20406;-65
2022/12/15 12:07:01;;;;;;;11.45;5.95;;;;;;;1.73;90.19;99978.78;4991591;28;20052;-66
2022/12/15 12:10:08;;;;;;;9.43;4.82;;;;;;;1.82;89.97;99969.72;4990452;28;20461;-65
2022/12/15 12:12:41;;;;;;;7.85;4.55;;;;;;;1.91;89.70;99982.22;4986728;28;20051;-65
2022/12/15 12:15:12;;;;;;;7.38;3.55;;;;;;;1.95;89.37;99973.31;4986966;28;20030;-66
2022/12/15 12:17:50;;;;;;;7.78;5.63;;;;;;;2.01;89.54;99976.59;4989351;28;20344;-65
2022/12/15 12:20:19;;;;;;;6.60;4.28;;;;;;;2.01;89.56;99984.56;4984512;28;20053;-65
2022/12/15 12:22:53;;;;;;;12.55;5.18;;;;;;;2.00;89.46;99983.75;4966767;28;20026;-64
2022/12/15 12:25:24;;;;;;;6.50;3.65;;;;;;;1.99;89.64;99987.53;4988618;28;20057;-65
2022/12/15 12:28:12;;;;;;;6.60;4.53;;;;;;;2.09;89.43;99983.75;4992007;28;20034;-65
2022/12/15 12:30:44;;;;;;;7.05;4.88;;;;;;;2.09;88.89;99979.22;4991010;28;20035;-65
2022/12/15 12:33:15;;;;;;;15.25;5.18;;;;;;;1.88;89.95;99980.97;4987999;28;20034;-66
2022/12/15 12:35:57;;;;;;;6.05;3.35;;;;;;;2.08;89.62;99990.16;4958774;28;20041;-65
2022/12/15 12:38:32;;;;;;;10.32;5.53;;;;;;;2.10;89.21;99978.13;4988533;28;20125;-66
2022/12/15 12:41:15;;;;;;;6.85;3.85;;;;;;;2.15;89.76;99977.19;4989750;28;20046;-65
2022/12/15 12:43:50;;;;;;;8.30;3.72;;;;;;;2.26;89.39;99981.06;4985665;28;20049;-66
2022/12/15 12:46:24;;;;;;;8.38;4.40;;;;;;;2.20;89.80;99969.06;4990627;28;20030;-66
2022/12/15 12:48:57;;;;;;;9.05;4.25;;;;;;;2.30;89.13;99966.84;4990289;28;20113;-65
2022/12/15 12:51:33;;;;;;;5.65;3.47;;;;;;;2.33;89.38;99968.88;4969404;28;20057;-66
2022/12/15 12:54:00;;;;;;;6.47;3.67;;;;;;;2.32;89.26;99969.19;4989368;28;20034;-65
2022/12/15 12:56:40;;;;;;;17.27;4.97;;;;;;;2.29;89.07;99972.47;4958609;28;20026;-65
2022/12/15 12:59:27;;;;;;;9.27;4.03;;;;;;;2.35;88.84;99979.16;4985157;28;20391;-66
2022/12/15 13:01:54;;;;;;;14.55;4.85;;;;;;;2.35;89.35;99979.16;4982428;28;20483;-66
2022/12/15 13:04:29;;;;;;;11.63;4.30;;;;;;;2.34;88.95;99985.59;4986659;28;20045;-66
2022/12/15 13:06:59;;;;;;;6.90;3.80;;;;;;;2.38;88.83;99984.63;4957081;28;20046;-66
2022/12/15 13:09:43;;;;;;;4.95;3.55;;;;;;;2.43;88.97;99983.69;4987525;28;20085;-65
2022/12/15 13:12:46;;;;;;;5.03;3.35;;;;;;;2.39;89.09;99988.84;4968300;28;20034;-65
2022/12/15 13:15:27;;;;;;;9.18;3.78;;;;;;;2.37;88.83;99976.97;4987685;28;20038;-65
2022/12/15 13:18:05;;;;;;;9.30;5.50;;;;;;;2.36;89.39;99981.50;4987064;28;20045;-66
2022/12/15 13:20:38;;;;;;;3.85;2.95;;;;;;;2.36;89.83;99975.44;4987109;28;20048;-65
2022/12/15 13:23:19;;;;;;;8.82;3.88;;;;;;;2.48;89.21;99973.66;4985394;28;20022;-66
2022/12/15 13:26:00;;;;;;;10.45;4.95;;;;;;;2.32;89.07;99972.59;4968416;28;21808;-65
2022/12/15 13:28:26;;;;;;;;;;;;;;;2.60;88.74;99976.44;4985824;28;20062;-66
2022/12/15 13:31:16;;;;;;;5.10;3.00;;;;;;;2.56;89.00;99970.19;4985732;28;19968;-65
2022/12/15 13:33:47;;;;;;;8.63;3.25;;;;;;;2.58;88.94;99978.63;4967430;28;20503;-65
2022/12/15 13:36:35;;;;;;;4.70;3.45;;;;;;;2.70;88.38;99967.34;4988141;28;20038;-65
2022/12/15 13:39:21;;;;;;;10.75;4.63;;;;;;;2.63;88.00;99970.47;4978959;28;20038;-65
2022/12/15 13:41:46;;;;;;;4.88;3.13;;;;;;;2.70;88.05;99962.03;4987162;28;20042;-65
2022/12/15 13:44:47;;;;;;;8.35;3.70;;;;;;;2.73;87.54;99958.72;4987547;28;20383;-65
2022/12/15 13:47:26;;;;;;;8.05;3.83;;;;;;;2.83;87.65;99968.22;4981091;28;20046;-65
2022/12/15 13:50:29;;;;;;;7.60;4.47;;;;;;;2.86;87.42;99971.03;4959323;28;20045;-66
2022/12/15 13:52:56;;;;;;;7.60;3.38;;;;;;;2.84;87.37;99970.56;4964632;28;20079;-65
2022/12/15 13:55:36;;;;;;;7.40;3.50;;;;;;;2.92;87.26;99974.28;4968575;28;20034;-65
2022/12/15 13:58:11;;;;;;;7.50;3.70;;;;;;;2.93;87.11;99971.28;4987831;28;20084;-65
2022/12/15 14:00:38;;;;;;;6.65;3.35;;;;;;;2.92;86.88;99977.72;4989119;28;20045;-65
2022/12/15 14:03:10;;;;;;;5.22;3.67;;;;;;;2.92;86.85;99980.38;4988372;28;20062;-66
2022/12/15 14:05:37;;;;;;;7.95;3.60;;;;;;;2.97;87.09;99977.53;4969228;28;20044;-66
2022/12/15 14:08:09;;;;;;;5.43;2.83;;;;;;;2.97;86.87;99985.50;4988238;28;20033;-66
2022/12/15 14:10:41;;;;;;;5.35;3.00;;;;;;;3.05;86.35;99984.69;4982091;28;20089;-66
2022/12/15 14:13:18;;;;;;;8.57;3.38;;;;;;;3.11;86.01;99975.44;4985822;28;20038;-66
2022/12/15 14:15:47;;;;;;;7.32;3.95;;;;;;;3.08;85.91;99989.34;4956038;28;20547;-66
2022/12/15 14:18:31;;;;;;;7.15;3.65;;;;;;;3.01;86.01;99988.31;4986240;28;20019;-66
2022/12/15 14:20:58;;;;;;;9.25;3.38;;;;;;;3.05;86.12;99992.66;4986445;28;20406;-66